SCCI 240500Z 25006KT 9999 FEW040 M02/M05 Q1013 NOSIG